Time;durP1;ratioP1;P1;durP2;ratioP2;P2;SDS_P1;SDS_P2;PMS_P1;PMS_P2;Temp;Humidity;BMP_temperature;BMP_pressure;BME280_temperature;BME280_humidity;BME280_pressure;Samples;Min_cycle;Max_cycle;Signal;HPM_P1;HPM_P2
2022/10/05 00:00:51;;;;;;;4.73;2.03;;;11.10;99.90;;;;;;4197108;28;20209;-76
2022/10/05 00:02:54;;;;;;;7.37;2.73;;;11.10;99.90;;;;;;4186493;28;20205;-75
2022/10/05 00:04:58;;;;;;;4.97;2.30;;;11.10;99.90;;;;;;4186370;28;20207;-75
2022/10/05 00:07:06;;;;;;;4.00;1.90;;;11.10;99.90;;;;;;4191974;28;20787;-75
2022/10/05 00:09:15;;;;;;;3.90;2.10;;;11.10;99.90;;;;;;4184723;28;20225;-75
2022/10/05 00:11:17;;;;;;;4.80;2.10;;;11.10;99.90;;;;;;4182115;28;20208;-75
2022/10/05 00:13:21;;;;;;;5.20;2.30;;;11.10;99.90;;;;;;4185268;28;20265;-75
2022/10/05 00:15:23;;;;;;;3.03;2.07;;;11.10;99.90;;;;;;4185008;28;20567;-75
2022/10/05 00:17:27;;;;;;;4.67;2.03;;;11.10;99.90;;;;;;4182115;28;20298;-76
2022/10/05 00:19:32;;;;;;;3.83;2.23;;;11.10;99.90;;;;;;4183043;28;20229;-76
2022/10/05 00:21:33;;;;;;;5.07;1.70;;;11.10;99.90;;;;;;4185728;28;20216;-76
2022/10/05 00:23:35;;;;;;;6.63;2.13;;;11.00;99.90;;;;;;4187027;28;20247;-75
2022/10/05 00:25:39;;;;;;;3.53;1.90;;;11.10;99.90;;;;;;4185936;28;20298;-76
2022/10/05 00:27:41;;;;;;;5.17;2.57;;;11.00;99.90;;;;;;4185879;28;20288;-76
2022/10/05 00:29:43;;;;;;;4.10;1.90;;;11.10;99.90;;;;;;4188126;28;20232;-75
2022/10/05 00:31:45;;;;;;;5.40;2.00;;;11.00;99.90;;;;;;4182938;28;20638;-76
2022/10/05 00:33:48;;;;;;;5.77;2.40;;;11.00;99.90;;;;;;4184926;28;20219;-75
2022/10/05 00:35:50;;;;;;;4.70;2.57;;;11.00;99.90;;;;;;4182729;28;20220;-75
2022/10/05 00:37:54;;;;;;;4.60;2.17;;;11.00;99.90;;;;;;4185403;28;20205;-76
2022/10/05 00:39:56;;;;;;;5.83;1.80;;;11.00;99.90;;;;;;4178739;28;20212;-75
2022/10/05 00:42:18;;;;;;;4.37;2.23;;;11.00;99.90;;;;;;4177501;28;20360;-75
2022/10/05 00:44:34;;;;;;;3.80;2.00;;;10.90;99.90;;;;;;4185159;28;20693;-76
2022/10/05 00:46:49;;;;;;;5.23;1.90;;;11.00;99.90;;;;;;4180668;28;20211;-75
2022/10/05 00:49:03;;;;;;;5.20;2.10;;;10.90;99.90;;;;;;4193564;28;20222;-76
2022/10/05 00:51:16;;;;;;;5.27;2.10;;;10.90;99.90;;;;;;4178167;28;20597;-76
2022/10/05 00:53:31;;;;;;;4.53;1.97;;;10.80;99.90;;;;;;4185874;28;20208;-76
2022/10/05 00:55:47;;;;;;;3.73;2.07;;;10.90;99.90;;;;;;4181947;28;20216;-76
2022/10/05 00:58:03;;;;;;;6.00;1.97;;;10.90;99.90;;;;;;4180153;28;20637;-75
2022/10/05 01:00:07;;;;;;;5.23;2.13;;;10.80;99.90;;;;;;4185380;28;20231;-76
2022/10/05 01:02:15;;;;;;;3.60;2.17;;;10.80;99.90;;;;;;4188128;28;20204;-76
2022/10/05 01:04:24;;;;;;;4.63;2.00;;;10.80;99.90;;;;;;4186589;28;20207;-76
2022/10/05 01:06:37;;;;;;;6.90;2.40;;;10.80;99.90;;;;;;4187759;28;20218;-75
2022/10/05 01:08:48;;;;;;;5.30;2.00;;;10.80;99.90;;;;;;4185293;28;20249;-76
2022/10/05 01:10:58;;;;;;;5.03;2.17;;;10.80;99.90;;;;;;4178343;28;20200;-76
2022/10/05 01:13:11;;;;;;;3.73;2.40;;;10.70;99.90;;;;;;4184502;28;20199;-76
2022/10/05 01:15:19;;;;;;;3.33;1.97;;;10.70;99.90;;;;;;4178932;28;20297;-75
2022/10/05 01:17:25;;;;;;;4.17;1.90;;;10.70;99.90;;;;;;4185899;28;20209;-76
2022/10/05 01:19:51;;;;;;;7.87;2.80;;;10.70;99.90;;;;;;4188086;28;20225;-75
2022/10/05 01:22:00;;;;;;;4.27;2.00;;;10.70;99.90;;;;;;4182641;28;20207;-75
2022/10/05 01:24:31;;;;;;;4.37;1.90;;;10.70;99.90;;;;;;4191919;28;20260;-76
2022/10/05 01:26:57;;;;;;;3.63;2.10;;;10.70;99.90;;;;;;4187459;28;20203;-76
2022/10/05 01:29:05;;;;;;;4.30;1.90;;;10.70;99.90;;;;;;4186363;28;20313;-76
2022/10/05 01:31:13;;;;;;;4.60;1.93;;;10.60;99.90;;;;;;4186482;28;20210;-75
2022/10/05 01:33:22;;;;;;;6.00;1.83;;;10.60;99.90;;;;;;4192406;28;20209;-76
2022/10/05 01:35:36;;;;;;;3.40;2.00;;;10.60;99.90;;;;;;4183234;28;20217;-76
2022/10/05 01:37:47;;;;;;;2.37;2.00;;;10.60;99.90;;;;;;4183857;28;20297;-76
2022/10/05 01:39:58;;;;;;;3.03;2.00;;;10.60;99.90;;;;;;4184277;28;20220;-76
2022/10/05 01:42:09;;;;;;;3.57;1.80;;;10.60;99.90;;;;;;4183288;28;20213;-77
2022/10/05 01:44:16;;;;;;;6.63;2.07;;;10.60;99.90;;;;;;4192856;28;20217;-76
2022/10/05 01:46:28;;;;;;;3.27;1.90;;;10.60;99.90;;;;;;4181205;28;20299;-77
2022/10/05 01:48:42;;;;;;;4.10;2.27;;;10.60;99.90;;;;;;4194308;28;20225;-76
2022/10/05 01:50:53;;;;;;;6.70;2.13;;;10.60;99.90;;;;;;4189788;28;20194;-75
2022/10/05 01:53:05;;;;;;;4.17;2.30;;;10.60;99.90;;;;;;4186459;28;20204;-75
2022/10/05 01:55:18;;;;;;;3.90;2.20;;;10.60;99.90;;;;;;4180913;28;20202;-76
2022/10/05 01:57:34;;;;;;;3.93;2.07;;;10.60;99.90;;;;;;4188451;28;20296;-76
2022/10/05 01:59:56;;;;;;;7.47;2.00;;;10.60;99.90;;;;;;4188398;28;20230;-75
2022/10/05 02:02:01;;;;;;;3.60;1.97;;;10.50;99.90;;;;;;4182793;28;20280;-75
2022/10/05 02:04:09;;;;;;;6.13;1.97;;;10.60;99.90;;;;;;4189538;28;20290;-76
2022/10/05 02:06:17;;;;;;;4.23;2.00;;;10.60;99.90;;;;;;4180695;28;20260;-77
2022/10/05 02:08:25;;;;;;;4.20;1.80;;;10.50;99.90;;;;;;4191231;28;20235;-77
2022/10/05 02:10:31;;;;;;;4.27;2.00;;;10.50;99.90;;;;;;4187919;28;20225;-76
2022/10/05 02:12:37;;;;;;;3.43;2.03;;;10.50;99.90;;;;;;4195312;28;20205;-77
2022/10/05 02:14:44;;;;;;;4.97;1.87;;;10.50;99.90;;;;;;4181458;28;20214;-75
2022/10/05 02:16:48;;;;;;;4.23;2.07;;;10.50;99.90;;;;;;4188645;28;20217;-75
2022/10/05 02:18:52;;;;;;;4.33;2.43;;;10.50;99.90;;;;;;4190003;28;20235;-75
2022/10/05 02:20:56;;;;;;;5.27;2.20;;;10.50;99.90;;;;;;4183183;28;20214;-75
2022/10/05 02:23:03;;;;;;;5.17;2.40;;;10.40;99.90;;;;;;4190085;28;20219;-76
2022/10/05 02:25:10;;;;;;;6.60;2.00;;;10.40;99.90;;;;;;4186908;28;20211;-76
2022/10/05 02:27:17;;;;;;;5.37;2.00;;;10.40;99.90;;;;;;4191544;28;20285;-77
2022/10/05 02:29:23;;;;;;;4.87;2.20;;;10.40;99.90;;;;;;4180509;28;20229;-75
2022/10/05 02:31:30;;;;;;;3.40;2.13;;;10.40;99.90;;;;;;4188878;28;20250;-75
2022/10/05 02:33:33;;;;;;;6.03;2.13;;;10.40;99.90;;;;;;4182773;28;20207;-77
2022/10/05 02:35:36;;;;;;;4.23;2.33;;;10.30;99.90;;;;;;4183696;28;20211;-76
2022/10/05 02:37:49;;;;;;;3.90;2.00;;;10.40;99.90;;;;;;4181774;28;20208;-76
2022/10/05 02:40:03;;;;;;;6.80;1.97;;;10.30;99.90;;;;;;4188724;28;20215;-76
2022/10/05 02:42:15;;;;;;;3.47;2.00;;;10.30;99.90;;;;;;4181187;28;20318;-76
2022/10/05 02:44:25;;;;;;;2.73;2.10;;;10.30;99.90;;;;;;4180770;28;20265;-77
2022/10/05 02:46:35;;;;;;;3.90;2.23;;;10.30;99.90;;;;;;4190666;28;20238;-77
2022/10/05 02:48:45;;;;;;;3.30;2.13;;;10.30;99.90;;;;;;4196650;28;20233;-77
2022/10/05 02:50:54;;;;;;;3.80;1.90;;;10.30;99.90;;;;;;4182390;28;20990;-76
2022/10/05 02:53:16;;;;;;;3.73;1.83;;;10.30;99.90;;;;;;4185336;28;20213;-76
2022/10/05 02:55:21;;;;;;;2.57;1.70;;;10.30;99.90;;;;;;4183531;28;20203;-76
2022/10/05 02:57:28;;;;;;;3.97;2.07;;;10.30;99.90;;;;;;4193650;28;20217;-76
2022/10/05 02:59:36;;;;;;;5.93;2.20;;;10.30;99.90;;;;;;4189551;28;20311;-76
2022/10/05 03:01:46;;;;;;;4.03;1.87;;;10.30;99.90;;;;;;4187320;28;20216;-76
2022/10/05 03:03:59;;;;;;;4.73;2.20;;;10.30;99.90;;;;;;4180420;28;20210;-76
2022/10/05 03:06:04;;;;;;;5.13;2.40;;;10.30;99.90;;;;;;4179846;28;20676;-76
2022/10/05 03:08:15;;;;;;;3.87;2.20;;;10.20;99.90;;;;;;4184452;28;20217;-76
2022/10/05 03:10:26;;;;;;;4.27;2.20;;;10.20;99.90;;;;;;4183572;28;20229;-76
2022/10/05 03:12:40;;;;;;;3.57;1.87;;;10.20;99.90;;;;;;4195476;28;20292;-76
2022/10/05 03:14:53;;;;;;;4.60;2.10;;;10.20;99.90;;;;;;4186389;28;20199;-77
2022/10/05 03:17:08;;;;;;;4.43;2.13;;;10.20;99.90;;;;;;4187290;28;20687;-76
2022/10/05 03:19:21;;;;;;;4.97;2.10;;;10.20;99.90;;;;;;4188223;28;20226;-76
2022/10/05 03:21:39;;;;;;;3.23;2.00;;;10.20;99.90;;;;;;4189170;28;20216;-76
2022/10/05 03:23:53;;;;;;;5.23;1.90;;;10.20;99.90;;;;;;4186972;28;20297;-76
2022/10/05 03:26:05;;;;;;;3.40;2.23;;;10.20;99.90;;;;;;4191635;28;20206;-77
2022/10/05 03:28:13;;;;;;;3.00;1.70;;;10.20;99.90;;;;;;4186629;28;20232;-77
2022/10/05 03:30:18;;;;;;;3.53;1.93;;;10.10;99.90;;;;;;4188324;28;20253;-77
2022/10/05 03:32:27;;;;;;;2.37;1.80;;;10.10;99.90;;;;;;4185524;28;20212;-77
2022/10/05 03:34:37;;;;;;;3.30;1.70;;;10.10;99.90;;;;;;4185873;28;20273;-77
2022/10/05 03:36:46;;;;;;;4.47;1.83;;;10.10;99.90;;;;;;4184258;28;20211;-77
2022/10/05 03:38:55;;;;;;;3.37;2.00;;;10.10;99.90;;;;;;4191347;28;20229;-77
2022/10/05 03:41:07;;;;;;;6.33;1.97;;;10.00;99.90;;;;;;4185340;28;20293;-77
2022/10/05 03:43:39;;;;;;;4.30;2.00;;;10.00;99.90;;;;;;4189252;28;20210;-77
2022/10/05 03:45:48;;;;;;;3.20;2.00;;;10.00;99.90;;;;;;4160886;28;21172;-77
2022/10/05 03:47:59;;;;;;;6.13;2.00;;;10.00;99.90;;;;;;4184314;28;20213;-77
2022/10/05 03:50:31;;;;;;;5.30;3.03;;;10.00;99.90;;;;;;4189733;28;20956;-77
2022/10/05 03:52:39;;;;;;;16.70;7.57;;;10.00;99.90;;;;;;4185777;28;20668;-77
2022/10/05 03:54:45;;;;;;;12.10;6.03;;;9.90;99.90;;;;;;4186396;28;20294;-77
2022/10/05 03:56:52;;;;;;;12.33;4.90;;;9.90;99.90;;;;;;4181625;28;20297;-77
2022/10/05 03:58:58;;;;;;;7.47;3.70;;;9.90;99.90;;;;;;4188638;28;20699;-76
2022/10/05 04:01:04;;;;;;;5.63;2.70;;;9.80;99.90;;;;;;4188819;28;20225;-77
2022/10/05 04:03:12;;;;;;;6.47;2.80;;;9.90;99.90;;;;;;4194438;28;20206;-76
2022/10/05 04:05:18;;;;;;;3.93;2.30;;;9.90;99.90;;;;;;4183212;28;20206;-77
2022/10/05 04:07:30;;;;;;;4.47;2.70;;;9.90;99.90;;;;;;4185407;28;20688;-75
2022/10/05 04:09:36;;;;;;;7.70;3.13;;;9.90;99.90;;;;;;4188747;28;20277;-75
2022/10/05 04:11:42;;;;;;;4.60;2.30;;;9.80;99.90;;;;;;4187540;28;20743;-76
2022/10/05 04:13:49;;;;;;;4.33;2.43;;;9.80;99.90;;;;;;4187599;28;20214;-75
2022/10/05 04:15:56;;;;;;;5.63;2.57;;;9.80;99.90;;;;;;4182763;28;20210;-77
2022/10/05 04:18:02;;;;;;;5.87;2.47;;;9.80;99.90;;;;;;4183518;28;20228;-76
2022/10/05 04:20:14;;;;;;;4.47;2.53;;;9.80;99.90;;;;;;4182632;28;20285;-76
2022/10/05 04:22:21;;;;;;;3.63;2.20;;;9.80;99.90;;;;;;4180011;28;20285;-76
2022/10/05 04:24:30;;;;;;;6.97;3.33;;;9.80;99.90;;;;;;4183600;28;20285;-75
2022/10/05 04:26:40;;;;;;;3.37;2.27;;;9.80;99.90;;;;;;4180946;28;20712;-75
2022/10/05 04:28:50;;;;;;;6.43;2.50;;;9.80;99.90;;;;;;4185773;28;20716;-75
2022/10/05 04:30:54;;;;;;;7.90;3.57;;;9.80;99.90;;;;;;4187686;28;20867;-75
2022/10/05 04:32:59;;;;;;;6.00;3.10;;;9.80;99.90;;;;;;4182372;28;20294;-76
2022/10/05 04:35:23;;;;;;;6.90;3.07;;;9.80;99.90;;;;;;4186049;28;20249;-76
2022/10/05 04:37:35;;;;;;;6.37;3.00;;;9.80;99.90;;;;;;4189812;28;20579;-75
2022/10/05 04:39:45;;;;;;;4.13;2.50;;;9.80;99.90;;;;;;4182473;28;20217;-76
2022/10/05 04:42:01;;;;;;;4.37;2.63;;;9.80;99.90;;;;;;4186299;28;20264;-75
2022/10/05 04:44:20;;;;;;;4.70;2.53;;;9.70;99.90;;;;;;4192988;28;20209;-76
2022/10/05 04:46:33;;;;;;;6.33;3.00;;;9.70;99.90;;;;;;4193211;28;20605;-76
2022/10/05 04:48:56;;;;;;;6.70;3.27;;;9.80;99.90;;;;;;4183878;28;20675;-75
2022/10/05 04:51:08;;;;;;;5.10;3.40;;;9.80;99.90;;;;;;4180784;28;20221;-75
2022/10/05 04:53:23;;;;;;;6.93;2.63;;;9.70;99.90;;;;;;4178087;28;20664;-76
2022/10/05 04:55:31;;;;;;;4.50;2.57;;;9.70;99.90;;;;;;4187721;28;20216;-76
2022/10/05 04:57:40;;;;;;;4.30;2.73;;;9.70;99.90;;;;;;4183950;28;20206;-76
2022/10/05 05:00:12;;;;;;;5.80;3.23;;;9.70;99.90;;;;;;4184538;28;20230;-75
2022/10/05 05:02:20;;;;;;;6.17;2.77;;;9.70;99.90;;;;;;4188192;28;20481;-76
2022/10/05 05:04:56;;;;;;;5.30;2.67;;;9.70;99.90;;;;;;4189623;28;20206;-76
2022/10/05 05:07:12;;;;;;;8.60;3.60;;;9.70;99.90;;;;;;4186854;28;20210;-76
2022/10/05 05:09:42;;;;;;;6.23;3.40;;;9.70;99.90;;;;;;4186517;28;20218;-76
2022/10/05 05:11:57;;;;;;;10.47;5.00;;;9.70;99.90;;;;;;4185617;28;20558;-76
2022/10/05 05:14:38;;;;;;;11.07;4.43;;;9.70;99.90;;;;;;4183970;28;20832;-76
2022/10/05 05:16:42;;;;;;;8.03;3.63;;;9.70;99.90;;;;;;4138055;28;20196;-74
2022/10/05 05:18:55;;;;;;;6.57;3.50;;;9.80;99.90;;;;;;4168660;28;20230;-74
2022/10/05 05:21:06;;;;;;;7.27;3.77;;;9.70;99.90;;;;;;4190777;28;20292;-77
2022/10/05 05:23:22;;;;;;;5.83;2.90;;;9.70;99.90;;;;;;4184735;28;20536;-75
2022/10/05 05:25:36;;;;;;;6.30;3.10;;;9.70;99.90;;;;;;4186088;28;20252;-75
2022/10/05 05:27:42;;;;;;;6.40;2.70;;;9.70;99.90;;;;;;4188072;28;20241;-74
2022/10/05 05:29:52;;;;;;;7.90;3.33;;;9.70;99.90;;;;;;4190758;28;20265;-75
2022/10/05 05:32:01;;;;;;;6.10;3.17;;;9.70;99.90;;;;;;4193825;28;20562;-74
2022/10/05 05:34:17;;;;;;;5.47;2.90;;;9.70;99.90;;;;;;4194898;28;20447;-74
2022/10/05 05:36:34;;;;;;;8.93;3.03;;;9.70;99.90;;;;;;4198166;28;20782;-75
2022/10/05 05:38:42;;;;;;;7.73;3.30;;;9.70;99.90;;;;;;4201535;28;20486;-75
2022/10/05 05:40:50;;;;;;;4.90;2.93;;;9.70;99.90;;;;;;4192599;28;20758;-80
2022/10/05 05:42:58;;;;;;;10.07;3.13;;;9.70;99.90;;;;;;4187886;28;20216;-75
2022/10/05 05:45:10;;;;;;;9.03;3.00;;;9.70;99.90;;;;;;4187636;28;20212;-75
2022/10/05 05:47:19;;;;;;;5.97;2.90;;;9.70;99.90;;;;;;4188199;28;20218;-75
2022/10/05 05:49:27;;;;;;;6.80;3.50;;;9.70;99.90;;;;;;4190352;28;20517;-75
2022/10/05 05:51:34;;;;;;;5.83;3.23;;;9.70;99.90;;;;;;4182599;28;20514;-75
2022/10/05 05:53:44;;;;;;;7.37;3.33;;;9.70;99.90;;;;;;4187948;28;20453;-75
2022/10/05 05:55:49;;;;;;;7.50;3.27;;;9.80;99.90;;;;;;4189113;28;20483;-75
2022/10/05 05:57:57;;;;;;;7.30;3.50;;;9.80;99.90;;;;;;4189765;28;20735;-75
2022/10/05 06:00:06;;;;;;;9.23;3.10;;;9.80;99.90;;;;;;4190389;28;20208;-75
2022/10/05 06:02:12;;;;;;;3.87;2.87;;;9.90;99.90;;;;;;4189083;28;20925;-75
2022/10/05 06:04:18;;;;;;;7.20;3.17;;;9.90;99.90;;;;;;4188588;28;20467;-75
2022/10/05 06:06:23;;;;;;;5.30;3.23;;;9.90;99.90;;;;;;4184031;28;20558;-76
2022/10/05 06:08:32;;;;;;;4.97;2.80;;;10.00;99.90;;;;;;4185217;28;20317;-76
2022/10/05 06:10:42;;;;;;;8.40;3.13;;;10.00;99.90;;;;;;4185684;28;20215;-76
2022/10/05 06:12:47;;;;;;;6.20;3.23;;;10.10;99.90;;;;;;4188325;28;20208;-76
2022/10/05 06:14:53;;;;;;;7.40;3.33;;;10.10;99.90;;;;;;4194079;28;20224;-76
2022/10/05 06:17:00;;;;;;;7.80;3.57;;;10.20;99.90;;;;;;4187460;28;20214;-75
2022/10/05 06:19:09;;;;;;;10.50;3.10;;;10.20;99.90;;;;;;4205133;28;20278;-76
2022/10/05 06:21:18;;;;;;;7.37;2.90;;;10.20;99.90;;;;;;4180900;28;20222;-76
2022/10/05 06:23:25;;;;;;;5.50;2.77;;;10.30;99.90;;;;;;4184422;28;20579;-77
2022/10/05 06:25:36;;;;;;;5.83;3.30;;;10.30;99.90;;;;;;4186848;28;20295;-76
2022/10/05 06:28:00;;;;;;;7.20;3.20;;;10.40;99.90;;;;;;4184746;28;20290;-76
2022/10/05 06:30:08;;;;;;;7.43;3.40;;;10.50;99.90;;;;;;4187730;28;20311;-76
2022/10/05 06:32:20;;;;;;;7.03;3.07;;;10.50;99.90;;;;;;4180602;28;20315;-76
2022/10/05 06:34:35;;;;;;;7.30;3.23;;;10.60;99.90;;;;;;4184415;28;20297;-76
2022/10/05 06:36:43;;;;;;;7.63;3.77;;;10.60;99.90;;;;;;4185216;28;20644;-76
2022/10/05 06:39:27;;;;;;;6.87;3.07;;;10.60;99.90;;;;;;4186550;28;20877;-76
2022/10/05 06:41:43;;;;;;;5.57;2.70;;;10.70;99.90;;;;;;4134527;28;20226;-76
2022/10/05 06:43:54;;;;;;;6.57;2.90;;;10.80;99.90;;;;;;4181035;28;20691;-76
2022/10/05 06:46:05;;;;;;;7.23;3.20;;;10.80;99.90;;;;;;4189165;28;20207;-76
2022/10/05 06:48:15;;;;;;;8.17;3.33;;;10.80;99.90;;;;;;4179918;28;20207;-76
2022/10/05 06:50:28;;;;;;;6.50;3.30;;;10.90;99.90;;;;;;4189441;28;20282;-76
2022/10/05 06:52:38;;;;;;;6.53;3.33;;;10.90;99.90;;;;;;4184770;28;20218;-76
2022/10/05 06:54:52;;;;;;;9.07;3.40;;;11.00;99.90;;;;;;4187958;28;20208;-76
2022/10/05 06:57:01;;;;;;;7.87;2.90;;;11.10;99.90;;;;;;4186599;28;20820;-76
2022/10/05 06:59:09;;;;;;;5.87;2.80;;;11.10;99.90;;;;;;4179533;28;20223;-77
2022/10/05 07:01:17;;;;;;;5.33;3.07;;;11.20;99.90;;;;;;4189208;28;20201;-76
2022/10/05 07:03:28;;;;;;;7.80;3.23;;;11.20;99.90;;;;;;4183123;28;20713;-76
2022/10/05 07:05:55;;;;;;;6.10;3.00;;;11.30;99.90;;;;;;4184048;28;20867;-76
2022/10/05 07:07:59;;;;;;;8.93;3.20;;;11.30;99.90;;;;;;4187467;28;20682;-76
2022/10/05 07:10:15;;;;;;;5.53;3.20;;;11.30;99.90;;;;;;4186491;28;20686;-76
2022/10/05 07:12:36;;;;;;;7.10;3.20;;;11.40;99.90;;;;;;4186649;28;20216;-76
2022/10/05 07:15:01;;;;;;;7.00;3.20;;;11.40;99.90;;;;;;4179484;28;20209;-76
2022/10/05 07:17:21;;;;;;;7.73;3.37;;;11.50;99.90;;;;;;4182031;28;20231;-76
2022/10/05 07:19:32;;;;;;;8.70;3.13;;;11.50;99.90;;;;;;4184803;28;20622;-76
2022/10/05 07:21:39;;;;;;;4.67;3.40;;;11.60;99.90;;;;;;4185771;28;20215;-76
2022/10/05 07:23:51;;;;;;;8.70;3.17;;;11.60;99.90;;;;;;4183487;28;20208;-75
2022/10/05 07:26:01;;;;;;;8.30;3.30;;;11.70;99.90;;;;;;4185963;28;20292;-75
2022/10/05 07:28:08;;;;;;;7.00;3.33;;;11.80;99.90;;;;;;4183556;28;20667;-75
2022/10/05 07:30:14;;;;;;;6.07;3.33;;;11.80;99.90;;;;;;4179467;28;20672;-75
2022/10/05 07:32:28;;;;;;;7.27;3.33;;;11.90;99.90;;;;;;4179089;28;20217;-75
2022/10/05 07:34:43;;;;;;;5.70;3.20;;;11.90;99.90;;;;;;4184102;28;20645;-75
2022/10/05 07:39:18;;;;;;;8.67;3.30;;;12.00;99.90;;;;;;4179285;28;20225;-75
2022/10/05 07:41:25;;;;;;;6.87;3.60;;;12.10;99.90;;;;;;4178663;28;20315;-75
2022/10/05 07:43:35;;;;;;;7.73;3.37;;;12.10;99.90;;;;;;4184691;28;20221;-75
2022/10/05 07:45:45;;;;;;;4.33;3.00;;;12.20;99.90;;;;;;4182085;28;20299;-75
2022/10/05 07:47:53;;;;;;;7.53;3.43;;;12.30;99.90;;;;;;4179027;28;20292;-76
2022/10/05 07:50:01;;;;;;;7.90;3.53;;;12.30;99.90;;;;;;4183406;28;20236;-75
2022/10/05 07:52:09;;;;;;;8.37;3.57;;;12.40;99.90;;;;;;4182868;28;20304;-76
2022/10/05 07:54:19;;;;;;;7.57;3.67;;;12.50;99.90;;;;;;4188148;28;20228;-75
2022/10/05 07:56:28;;;;;;;6.57;3.43;;;12.50;99.90;;;;;;4178147;28;20600;-75
2022/10/05 07:58:36;;;;;;;7.00;3.60;;;12.60;99.90;;;;;;4187015;28;20271;-76
2022/10/05 08:00:54;;;;;;;7.83;3.60;;;12.60;99.90;;;;;;4182034;28;20220;-77
2022/10/05 08:03:00;;;;;;;6.20;3.70;;;12.70;99.90;;;;;;4182165;28;20698;-76
2022/10/05 08:05:11;;;;;;;7.77;3.90;;;12.70;99.90;;;;;;4180671;28;20232;-75
2022/10/05 08:07:16;;;;;;;5.97;3.60;;;12.90;99.90;;;;;;4186904;28;20705;-75
2022/10/05 08:09:30;;;;;;;9.83;3.50;;;12.80;99.90;;;;;;4176601;28;20312;-75
2022/10/05 08:11:39;;;;;;;5.30;3.17;;;12.90;99.90;;;;;;4186758;28;20784;-75
2022/10/05 08:13:49;;;;;;;5.03;3.23;;;12.90;99.90;;;;;;4183207;28;20792;-77
2022/10/05 08:15:57;;;;;;;4.40;3.00;;;13.00;99.90;;;;;;4184701;28;20671;-75
2022/10/05 08:18:02;;;;;;;6.77;3.13;;;13.10;99.90;;;;;;4187064;28;20215;-74
2022/10/05 08:20:18;;;;;;;4.07;2.80;;;13.10;99.90;;;;;;4181703;28;20214;-73
2022/10/05 08:22:25;;;;;;;7.23;2.97;;;13.10;99.90;;;;;;4181965;28;20860;-74
2022/10/05 08:24:41;;;;;;;9.43;3.57;;;13.20;99.90;;;;;;4182231;28;20235;-74
2022/10/05 08:26:52;;;;;;;9.10;3.90;;;13.30;99.90;;;;;;4193136;28;20249;-79
2022/10/05 08:29:03;;;;;;;8.17;3.80;;;13.40;99.90;;;;;;4202539;28;20298;-76
2022/10/05 08:31:18;;;;;;;4.80;3.40;;;13.40;99.90;;;;;;4194977;28;20202;-74
2022/10/05 08:33:21;;;;;;;6.80;3.97;;;13.50;99.90;;;;;;4194799;28;20228;-75
2022/10/05 08:35:32;;;;;;;8.33;4.10;;;13.60;99.90;;;;;;4204425;28;20277;-75
2022/10/05 08:37:40;;;;;;;6.40;3.50;;;13.70;99.90;;;;;;4191615;28;20649;-75
2022/10/05 08:39:52;;;;;;;7.57;3.67;;;13.80;99.90;;;;;;4185444;28;21045;-77
2022/10/05 08:42:30;;;;;;;8.87;3.90;;;13.90;99.90;;;;;;4179513;28;20211;-76
2022/10/05 08:44:59;;;;;;;5.20;3.10;;;13.90;99.90;;;;;;4181186;28;20321;-75
2022/10/05 08:47:18;;;;;;;5.03;3.57;;;14.00;99.90;;;;;;4186821;28;20702;-75
2022/10/05 08:49:49;;;;;;;7.23;3.30;;;14.10;99.90;;;;;;4182525;28;20234;-75
2022/10/05 08:52:23;;;;;;;12.13;3.43;;;14.20;99.90;;;;;;4185726;28;20225;-75
2022/10/05 08:54:46;;;;;;;7.43;3.40;;;14.20;99.90;;;;;;4185376;28;20209;-75
2022/10/05 08:57:01;;;;;;;5.03;3.33;;;14.30;99.90;;;;;;4185425;28;20660;-75
2022/10/05 08:59:33;;;;;;;5.03;3.07;;;14.40;99.90;;;;;;4185355;28;20252;-76
2022/10/05 09:01:50;;;;;;;5.20;3.30;;;14.40;99.90;;;;;;4171494;28;20633;-75
2022/10/05 09:04:32;;;;;;;7.13;3.20;;;14.40;99.90;;;;;;4180863;28;20198;-76
2022/10/05 09:07:05;;;;;;;4.17;2.97;;;14.50;99.90;;;;;;4181026;28;20207;-76
2022/10/05 09:09:20;;;;;;;5.60;3.27;;;14.50;99.90;;;;;;4188448;28;21030;-76
2022/10/05 09:11:32;;;;;;;10.87;3.23;;;14.60;99.90;;;;;;4184678;28;20219;-76
2022/10/05 09:14:02;;;;;;;5.00;3.30;;;14.50;99.90;;;;;;4184995;28;20262;-76
2022/10/05 09:16:38;;;;;;;4.40;2.87;;;14.60;99.90;;;;;;4183105;28;20309;-75
2022/10/05 09:19:00;;;;;;;6.27;2.83;;;14.70;99.90;;;;;;4181220;28;20233;-75
2022/10/05 09:21:12;;;;;;;4.97;3.23;;;14.70;99.90;;;;;;4198640;28;20349;-75
2022/10/05 09:23:31;;;;;;;5.70;3.00;;;14.70;99.90;;;;;;4186634;28;20670;-76
2022/10/05 09:25:42;;;;;;;6.50;2.97;;;14.80;99.90;;;;;;4183125;28;20205;-75
2022/10/05 09:27:52;;;;;;;9.27;3.23;;;14.90;99.90;;;;;;4178378;28;20207;-76
2022/10/05 09:30:22;;;;;;;7.83;2.80;;;14.90;99.90;;;;;;4188770;28;20893;-76
2022/10/05 09:32:42;;;;;;;4.07;2.93;;;15.00;99.90;;;;;;4184595;28;20239;-76
2022/10/05 09:35:07;;;;;;;5.57;2.93;;;15.00;99.90;;;;;;4177476;28;20687;-76
2022/10/05 09:37:40;;;;;;;6.80;3.23;;;15.10;99.90;;;;;;4185433;28;20243;-76
2022/10/05 09:40:17;;;;;;;6.37;2.93;;;15.20;99.90;;;;;;4188033;28;20250;-76
2022/10/05 09:42:39;;;;;;;5.23;3.07;;;15.20;99.90;;;;;;4181730;28;20238;-76
2022/10/05 09:45:14;;;;;;;6.33;3.30;;;15.30;99.90;;;;;;4178714;28;20221;-76
2022/10/05 09:47:51;;;;;;;4.40;2.83;;;15.40;99.90;;;;;;4162752;28;20710;-76
2022/10/05 09:50:34;;;;;;;5.67;3.63;;;15.50;99.90;;;;;;4180959;28;20248;-76
2022/10/05 09:53:04;;;;;;;5.20;2.73;;;15.60;99.90;;;;;;4153503;28;20739;-77
2022/10/05 09:55:38;;;;;;;8.90;3.20;;;15.70;99.90;;;;;;4161143;28;20221;-76
2022/10/05 09:58:19;;;;;;;6.10;3.13;;;15.80;99.90;;;;;;4186277;28;20263;-77
2022/10/05 10:00:30;;;;;;;7.03;3.17;;;15.90;99.90;;;;;;4189454;28;20694;-75
2022/10/05 10:02:58;;;;;;;5.60;3.13;;;16.00;99.90;;;;;;4184246;28;20675;-75
2022/10/05 10:05:25;;;;;;;4.47;3.20;;;16.10;99.90;;;;;;4188401;28;20208;-75
2022/10/05 10:08:03;;;;;;;6.87;3.50;;;16.20;99.90;;;;;;4192672;28;20202;-73
2022/10/05 10:10:46;;;;;;;5.33;3.03;;;16.30;99.90;;;;;;4168687;28;20641;-75
2022/10/05 10:13:12;;;;;;;5.83;3.47;;;16.40;99.90;;;;;;4190086;28;20221;-77
2022/10/05 10:15:43;;;;;;;6.53;3.23;;;16.50;99.90;;;;;;4183522;28;20781;-76
2022/10/05 10:18:15;;;;;;;4.27;3.07;;;16.60;99.90;;;;;;4183046;28;20280;-76
2022/10/05 10:20:38;;;;;;;6.40;3.20;;;16.70;99.90;;;;;;4182058;28;20250;-76
2022/10/05 10:23:01;;;;;;;6.83;3.37;;;16.80;99.90;;;;;;4186823;28;20584;-77
2022/10/05 10:25:39;;;;;;;5.73;3.17;;;16.80;99.90;;;;;;4186673;28;20259;-76
2022/10/05 10:28:04;;;;;;;4.87;3.23;;;16.90;99.90;;;;;;4187343;28;20214;-75
2022/10/05 10:30:37;;;;;;;5.50;3.40;;;17.00;99.90;;;;;;4180152;28;20222;-75
2022/10/05 10:33:14;;;;;;;6.47;3.00;;;17.10;99.90;;;;;;4184627;28;20221;-75
2022/10/05 10:35:26;;;;;;;5.63;2.93;;;17.20;99.90;;;;;;4150922;28;20249;-75
2022/10/05 10:37:39;;;;;;;5.87;3.03;;;17.40;99.90;;;;;;4186044;28;20209;-76
2022/10/05 10:39:57;;;;;;;5.10;3.40;;;17.40;99.90;;;;;;4184364;28;20843;-76
2022/10/05 10:42:17;;;;;;;6.00;2.80;;;17.50;99.90;;;;;;4185936;28;20206;-76
2022/10/05 10:44:47;;;;;;;4.67;3.00;;;17.60;99.90;;;;;;4186511;28;20234;-75
2022/10/05 10:47:06;;;;;;;5.00;3.13;;;17.80;99.90;;;;;;4185622;28;20227;-76
2022/10/05 10:49:25;;;;;;;5.87;3.00;;;17.90;99.90;;;;;;4185734;28;20610;-75
2022/10/05 10:52:03;;;;;;;4.40;2.97;;;18.00;99.90;;;;;;4187357;28;20207;-75
2022/10/05 10:54:48;;;;;;;4.73;2.73;;;18.20;99.90;;;;;;4189317;28;20721;-74
2022/10/05 10:57:01;;;;;;;3.73;2.60;;;18.30;99.90;;;;;;4176744;28;20648;-76
2022/10/05 10:59:42;;;;;;;3.70;2.63;;;18.50;99.90;;;;;;4184883;28;20226;-75
2022/10/05 11:02:03;;;;;;;5.33;2.70;;;18.60;99.90;;;;;;4190259;28;20573;-77
2022/10/05 11:04:33;;;;;;;6.23;3.07;;;18.70;99.90;;;;;;4185909;28;20204;-74
2022/10/05 11:06:59;;;;;;;4.17;2.83;;;18.90;99.90;;;;;;4184769;28;20856;-75
2022/10/05 11:09:31;;;;;;;4.50;2.70;;;19.00;99.90;;;;;;4183088;28;20218;-74
2022/10/05 11:12:00;;;;;;;4.47;2.60;;;19.10;99.90;;;;;;4185707;28;20663;-75
2022/10/05 11:14:27;;;;;;;3.67;2.30;;;19.30;99.90;;;;;;4186964;28;20207;-76
2022/10/05 11:16:56;;;;;;;4.13;2.90;;;19.40;99.90;;;;;;4186059;28;20698;-75
2022/10/05 11:19:34;;;;;;;3.20;2.40;;;19.50;99.90;;;;;;4185678;28;20226;-74
2022/10/05 11:21:47;;;;;;;5.20;2.67;;;19.70;99.90;;;;;;4185550;28;20209;-74
2022/10/05 11:24:13;;;;;;;4.67;2.50;;;19.80;99.90;;;;;;4182252;28;20222;-77
2022/10/05 11:26:34;;;;;;;8.50;2.93;;;19.90;98.80;;;;;;4194672;28;20206;-78
2022/10/05 11:29:20;;;;;;;5.50;2.57;;;19.90;99.90;;;;;;4195432;28;20241;-76
2022/10/05 11:32:06;;;;;;;4.03;2.63;;;20.00;96.90;;;;;;4179171;28;20218;-77
2022/10/05 11:34:31;;;;;;;4.00;2.30;;;20.10;93.40;;;;;;4191789;28;20652;-75
2022/10/05 11:37:30;;;;;;;5.63;2.60;;;20.20;95.50;;;;;;4189812;28;20324;-76
2022/10/05 11:39:42;;;;;;;3.77;2.40;;;20.30;93.90;;;;;;4114890;28;20239;-74
2022/10/05 11:42:16;;;;;;;3.83;2.23;;;20.30;91.50;;;;;;4181744;28;20273;-73
2022/10/05 11:44:44;;;;;;;4.80;2.40;;;20.30;90.20;;;;;;4185677;28;20260;-73